sensor_id;sensor_type;location;lat;lon;timestamp;P1;durP1;ratioP1;P2;durP2;ratioP2
75426;SDS011;64007;50.632;13.700;2023-03-05T00:01:51;11.70;;;3.10;;
75426;SDS011;64007;50.632;13.700;2023-03-05T00:04:17;9.43;;;2.35;;
75426;SDS011;64007;50.632;13.700;2023-03-05T00:06:42;5.28;;;2.08;;
75426;SDS011;64007;50.632;13.700;2023-03-05T00:09:08;9.10;;;1.73;;
75426;SDS011;64007;50.632;13.700;2023-03-05T00:11:34;7.90;;;2.15;;
75426;SDS011;64007;50.632;13.700;2023-03-05T00:14:00;9.07;;;1.58;;
75426;SDS011;64007;50.632;13.700;2023-03-05T00:16:28;5.75;;;1.40;;
75426;SDS011;64007;50.632;13.700;2023-03-05T00:18:54;5.43;;;1.50;;
75426;SDS011;64007;50.632;13.700;2023-03-05T00:21:22;10.68;;;1.83;;
75426;SDS011;64007;50.632;13.700;2023-03-05T00:23:56;6.82;;;1.73;;
75426;SDS011;64007;50.632;13.700;2023-03-05T00:26:25;6.40;;;1.95;;
75426;SDS011;64007;50.632;13.700;2023-03-05T00:28:52;10.32;;;1.85;;
75426;SDS011;64007;50.632;13.700;2023-03-05T00:31:20;6.88;;;2.10;;
75426;SDS011;64007;50.632;13.700;2023-03-05T00:33:53;5.38;;;1.98;;
75426;SDS011;64007;50.632;13.700;2023-03-05T00:36:22;6.60;;;1.98;;
75426;SDS011;64007;50.632;13.700;2023-03-05T00:38:48;9.02;;;2.38;;
75426;SDS011;64007;50.632;13.700;2023-03-05T00:41:15;7.63;;;2.10;;
75426;SDS011;64007;50.632;13.700;2023-03-05T00:43:41;8.50;;;2.58;;
75426;SDS011;64007;50.632;13.700;2023-03-05T00:46:07;7.50;;;2.60;;
75426;SDS011;64007;50.632;13.700;2023-03-05T00:48:32;9.32;;;2.55;;
75426;SDS011;64007;50.632;13.700;2023-03-05T00:50:58;11.65;;;2.83;;
75426;SDS011;64007;50.632;13.700;2023-03-05T00:53:24;12.32;;;2.80;;
75426;SDS011;64007;50.632;13.700;2023-03-05T00:55:50;7.05;;;2.30;;
75426;SDS011;64007;50.632;13.700;2023-03-05T00:58:15;8.10;;;2.83;;
75426;SDS011;64007;50.632;13.700;2023-03-05T01:00:42;14.35;;;2.50;;
75426;SDS011;64007;50.632;13.700;2023-03-05T01:03:07;6.63;;;2.63;;
75426;SDS011;64007;50.632;13.700;2023-03-05T01:05:33;6.82;;;2.47;;
75426;SDS011;64007;50.632;13.700;2023-03-05T01:07:59;8.25;;;2.60;;
75426;SDS011;64007;50.632;13.700;2023-03-05T01:10:25;6.63;;;2.72;;
75426;SDS011;64007;50.632;13.700;2023-03-05T01:12:51;6.93;;;2.58;;
75426;SDS011;64007;50.632;13.700;2023-03-05T01:15:18;11.63;;;2.78;;
75426;SDS011;64007;50.632;13.700;2023-03-05T01:17:43;12.30;;;3.30;;
75426;SDS011;64007;50.632;13.700;2023-03-05T01:20:11;9.45;;;3.08;;
75426;SDS011;64007;50.632;13.700;2023-03-05T01:22:38;8.15;;;3.15;;
75426;SDS011;64007;50.632;13.700;2023-03-05T01:25:04;9.70;;;3.20;;
75426;SDS011;64007;50.632;13.700;2023-03-05T01:27:30;8.15;;;2.90;;
75426;SDS011;64007;50.632;13.700;2023-03-05T01:29:55;8.88;;;3.30;;
75426;SDS011;64007;50.632;13.700;2023-03-05T01:32:21;10.90;;;3.63;;
75426;SDS011;64007;50.632;13.700;2023-03-05T01:34:47;12.18;;;3.30;;
75426;SDS011;64007;50.632;13.700;2023-03-05T01:37:13;11.00;;;3.65;;
75426;SDS011;64007;50.632;13.700;2023-03-05T01:39:38;10.50;;;2.60;;
75426;SDS011;64007;50.632;13.700;2023-03-05T01:42:04;7.70;;;2.60;;
75426;SDS011;64007;50.632;13.700;2023-03-05T01:44:30;8.27;;;3.13;;
75426;SDS011;64007;50.632;13.700;2023-03-05T01:46:57;11.32;;;3.20;;
75426;SDS011;64007;50.632;13.700;2023-03-05T01:49:31;10.40;;;3.10;;
75426;SDS011;64007;50.632;13.700;2023-03-05T01:54:40;5.60;;;2.50;;
75426;SDS011;64007;50.632;13.700;2023-03-05T01:57:18;7.80;;;2.33;;
75426;SDS011;64007;50.632;13.700;2023-03-05T01:59:47;4.25;;;2.08;;
75426;SDS011;64007;50.632;13.700;2023-03-05T02:02:15;8.35;;;2.42;;
75426;SDS011;64007;50.632;13.700;2023-03-05T02:04:45;8.68;;;2.30;;
75426;SDS011;64007;50.632;13.700;2023-03-05T02:07:19;5.32;;;2.20;;
75426;SDS011;64007;50.632;13.700;2023-03-05T02:09:45;7.35;;;2.30;;
75426;SDS011;64007;50.632;13.700;2023-03-05T02:12:12;4.55;;;2.08;;
75426;SDS011;64007;50.632;13.700;2023-03-05T02:14:38;4.88;;;2.00;;
75426;SDS011;64007;50.632;13.700;2023-03-05T02:17:07;4.70;;;2.70;;
75426;SDS011;64007;50.632;13.700;2023-03-05T02:19:48;5.28;;;1.83;;
75426;SDS011;64007;50.632;13.700;2023-03-05T02:22:27;3.90;;;2.60;;
75426;SDS011;64007;50.632;13.700;2023-03-05T02:24:53;8.48;;;2.35;;
75426;SDS011;64007;50.632;13.700;2023-03-05T02:27:20;6.53;;;2.58;;
75426;SDS011;64007;50.632;13.700;2023-03-05T02:29:49;6.18;;;3.28;;
75426;SDS011;64007;50.632;13.700;2023-03-05T02:32:16;6.80;;;3.45;;
75426;SDS011;64007;50.632;13.700;2023-03-05T02:34:42;8.48;;;3.78;;
75426;SDS011;64007;50.632;13.700;2023-03-05T02:37:08;12.25;;;4.07;;
75426;SDS011;64007;50.632;13.700;2023-03-05T02:39:34;10.23;;;4.45;;
75426;SDS011;64007;50.632;13.700;2023-03-05T02:42:01;9.95;;;5.15;;
75426;SDS011;64007;50.632;13.700;2023-03-05T02:44:26;7.53;;;4.82;;
75426;SDS011;64007;50.632;13.700;2023-03-05T02:46:52;12.23;;;5.50;;
75426;SDS011;64007;50.632;13.700;2023-03-05T02:49:18;13.40;;;5.65;;
75426;SDS011;64007;50.632;13.700;2023-03-05T02:51:44;10.57;;;5.45;;
75426;SDS011;64007;50.632;13.700;2023-03-05T02:54:09;13.13;;;5.40;;
75426;SDS011;64007;50.632;13.700;2023-03-05T02:56:35;10.57;;;5.72;;
75426;SDS011;64007;50.632;13.700;2023-03-05T02:59:02;11.55;;;5.47;;
75426;SDS011;64007;50.632;13.700;2023-03-05T03:01:28;6.85;;;4.15;;
75426;SDS011;64007;50.632;13.700;2023-03-05T03:03:54;11.52;;;4.95;;
75426;SDS011;64007;50.632;13.700;2023-03-05T03:06:20;7.30;;;4.60;;
75426;SDS011;64007;50.632;13.700;2023-03-05T03:08:45;7.70;;;4.32;;
75426;SDS011;64007;50.632;13.700;2023-03-05T03:11:11;7.88;;;4.35;;
75426;SDS011;64007;50.632;13.700;2023-03-05T03:13:38;8.23;;;4.28;;
75426;SDS011;64007;50.632;13.700;2023-03-05T03:16:05;7.88;;;3.70;;
75426;SDS011;64007;50.632;13.700;2023-03-05T03:18:33;7.15;;;3.75;;
75426;SDS011;64007;50.632;13.700;2023-03-05T03:20:59;5.75;;;3.40;;
75426;SDS011;64007;50.632;13.700;2023-03-05T03:23:25;8.70;;;3.42;;
75426;SDS011;64007;50.632;13.700;2023-03-05T03:25:52;11.68;;;3.60;;
75426;SDS011;64007;50.632;13.700;2023-03-05T03:28:17;6.30;;;2.97;;
75426;SDS011;64007;50.632;13.700;2023-03-05T03:30:43;7.22;;;2.70;;
75426;SDS011;64007;50.632;13.700;2023-03-05T03:33:09;10.05;;;2.45;;
75426;SDS011;64007;50.632;13.700;2023-03-05T03:35:35;6.28;;;2.33;;
75426;SDS011;64007;50.632;13.700;2023-03-05T03:38:00;3.10;;;2.00;;
75426;SDS011;64007;50.632;13.700;2023-03-05T03:40:26;2.75;;;1.95;;
75426;SDS011;64007;50.632;13.700;2023-03-05T03:42:52;3.75;;;2.10;;
75426;SDS011;64007;50.632;13.700;2023-03-05T03:45:18;5.00;;;1.65;;
75426;SDS011;64007;50.632;13.700;2023-03-05T03:47:49;5.03;;;1.95;;
75426;SDS011;64007;50.632;13.700;2023-03-05T03:50:16;5.18;;;1.63;;
75426;SDS011;64007;50.632;13.700;2023-03-05T03:52:43;4.10;;;1.73;;
75426;SDS011;64007;50.632;13.700;2023-03-05T03:55:09;4.65;;;1.50;;
75426;SDS011;64007;50.632;13.700;2023-03-05T03:57:35;1.98;;;1.13;;
75426;SDS011;64007;50.632;13.700;2023-03-05T04:00:03;2.97;;;1.40;;
75426;SDS011;64007;50.632;13.700;2023-03-05T04:02:32;3.38;;;1.40;;
75426;SDS011;64007;50.632;13.700;2023-03-05T04:04:58;3.90;;;1.52;;
75426;SDS011;64007;50.632;13.700;2023-03-05T04:07:24;3.90;;;1.15;;
75426;SDS011;64007;50.632;13.700;2023-03-05T04:09:50;4.35;;;1.27;;
75426;SDS011;64007;50.632;13.700;2023-03-05T04:12:16;2.72;;;1.20;;
75426;SDS011;64007;50.632;13.700;2023-03-05T04:14:44;3.42;;;1.45;;
75426;SDS011;64007;50.632;13.700;2023-03-05T04:17:11;2.75;;;1.20;;
75426;SDS011;64007;50.632;13.700;2023-03-05T04:19:37;4.22;;;1.65;;
75426;SDS011;64007;50.632;13.700;2023-03-05T04:22:02;2.75;;;1.30;;
75426;SDS011;64007;50.632;13.700;2023-03-05T04:24:28;5.55;;;1.48;;
75426;SDS011;64007;50.632;13.700;2023-03-05T04:26:54;3.53;;;1.55;;
75426;SDS011;64007;50.632;13.700;2023-03-05T04:29:20;2.33;;;1.30;;
75426;SDS011;64007;50.632;13.700;2023-03-05T04:31:45;3.47;;;1.38;;
75426;SDS011;64007;50.632;13.700;2023-03-05T04:34:11;5.70;;;1.27;;
75426;SDS011;64007;50.632;13.700;2023-03-05T04:36:37;4.93;;;1.80;;
75426;SDS011;64007;50.632;13.700;2023-03-05T04:39:03;5.78;;;1.42;;
75426;SDS011;64007;50.632;13.700;2023-03-05T04:41:29;3.78;;;1.65;;
75426;SDS011;64007;50.632;13.700;2023-03-05T04:43:54;3.15;;;1.50;;
75426;SDS011;64007;50.632;13.700;2023-03-05T04:46:20;3.70;;;1.40;;
75426;SDS011;64007;50.632;13.700;2023-03-05T04:48:46;5.88;;;1.63;;
75426;SDS011;64007;50.632;13.700;2023-03-05T04:51:11;4.55;;;1.40;;
75426;SDS011;64007;50.632;13.700;2023-03-05T04:53:37;2.95;;;1.58;;
75426;SDS011;64007;50.632;13.700;2023-03-05T04:56:03;6.28;;;1.83;;
75426;SDS011;64007;50.632;13.700;2023-03-05T04:58:29;3.50;;;1.40;;
75426;SDS011;64007;50.632;13.700;2023-03-05T05:00:59;3.92;;;1.80;;
75426;SDS011;64007;50.632;13.700;2023-03-05T05:03:29;3.22;;;1.60;;
75426;SDS011;64007;50.632;13.700;2023-03-05T05:05:55;3.97;;;1.70;;
75426;SDS011;64007;50.632;13.700;2023-03-05T05:08:22;3.25;;;1.63;;
75426;SDS011;64007;50.632;13.700;2023-03-05T05:10:55;3.78;;;1.65;;
75426;SDS011;64007;50.632;13.700;2023-03-05T05:13:21;4.53;;;1.88;;
75426;SDS011;64007;50.632;13.700;2023-03-05T05:15:46;5.47;;;1.83;;
75426;SDS011;64007;50.632;13.700;2023-03-05T05:18:12;4.82;;;1.73;;
75426;SDS011;64007;50.632;13.700;2023-03-05T05:20:38;4.30;;;2.00;;
75426;SDS011;64007;50.632;13.700;2023-03-05T05:23:03;5.78;;;1.90;;
75426;SDS011;64007;50.632;13.700;2023-03-05T05:25:29;3.67;;;1.73;;
75426;SDS011;64007;50.632;13.700;2023-03-05T05:27:55;8.98;;;1.92;;
75426;SDS011;64007;50.632;13.700;2023-03-05T05:30:20;3.58;;;1.92;;
75426;SDS011;64007;50.632;13.700;2023-03-05T05:32:47;4.65;;;1.98;;
75426;SDS011;64007;50.632;13.700;2023-03-05T05:35:12;4.50;;;2.20;;
75426;SDS011;64007;50.632;13.700;2023-03-05T05:37:38;3.05;;;1.75;;
75426;SDS011;64007;50.632;13.700;2023-03-05T05:40:04;3.75;;;2.20;;
75426;SDS011;64007;50.632;13.700;2023-03-05T05:42:30;6.28;;;1.80;;
75426;SDS011;64007;50.632;13.700;2023-03-05T05:44:56;4.80;;;2.10;;
75426;SDS011;64007;50.632;13.700;2023-03-05T05:47:21;4.45;;;2.03;;
75426;SDS011;64007;50.632;13.700;2023-03-05T05:49:47;4.35;;;2.22;;
75426;SDS011;64007;50.632;13.700;2023-03-05T05:52:16;4.85;;;2.08;;
75426;SDS011;64007;50.632;13.700;2023-03-05T05:54:41;8.05;;;2.20;;
75426;SDS011;64007;50.632;13.700;2023-03-05T05:57:08;4.90;;;1.90;;
75426;SDS011;64007;50.632;13.700;2023-03-05T05:59:33;4.55;;;1.73;;
75426;SDS011;64007;50.632;13.700;2023-03-05T06:01:59;5.00;;;2.10;;
75426;SDS011;64007;50.632;13.700;2023-03-05T06:04:25;3.83;;;1.73;;
75426;SDS011;64007;50.632;13.700;2023-03-05T06:06:51;4.85;;;2.05;;
75426;SDS011;64007;50.632;13.700;2023-03-05T06:09:16;7.40;;;2.10;;
75426;SDS011;64007;50.632;13.700;2023-03-05T06:11:42;4.35;;;1.83;;
75426;SDS011;64007;50.632;13.700;2023-03-05T06:14:09;3.78;;;2.00;;
75426;SDS011;64007;50.632;13.700;2023-03-05T06:16:36;5.72;;;1.80;;
75426;SDS011;64007;50.632;13.700;2023-03-05T06:19:02;7.68;;;1.75;;
75426;SDS011;64007;50.632;13.700;2023-03-05T06:21:29;4.32;;;1.80;;
75426;SDS011;64007;50.632;13.700;2023-03-05T06:23:55;6.78;;;2.30;;
75426;SDS011;64007;50.632;13.700;2023-03-05T06:26:23;3.75;;;1.42;;
75426;SDS011;64007;50.632;13.700;2023-03-05T06:28:49;4.80;;;1.50;;
75426;SDS011;64007;50.632;13.700;2023-03-05T06:31:17;2.50;;;1.35;;
75426;SDS011;64007;50.632;13.700;2023-03-05T06:33:49;3.05;;;1.60;;
75426;SDS011;64007;50.632;13.700;2023-03-05T06:36:17;6.05;;;1.83;;
75426;SDS011;64007;50.632;13.700;2023-03-05T06:38:43;5.20;;;1.60;;
75426;SDS011;64007;50.632;13.700;2023-03-05T06:41:10;4.50;;;1.73;;
75426;SDS011;64007;50.632;13.700;2023-03-05T06:43:39;4.95;;;1.45;;
75426;SDS011;64007;50.632;13.700;2023-03-05T06:46:08;4.80;;;1.17;;
75426;SDS011;64007;50.632;13.700;2023-03-05T06:48:37;2.38;;;1.48;;
75426;SDS011;64007;50.632;13.700;2023-03-05T06:51:04;2.38;;;1.15;;
75426;SDS011;64007;50.632;13.700;2023-03-05T06:53:30;2.28;;;1.10;;
75426;SDS011;64007;50.632;13.700;2023-03-05T06:55:56;4.93;;;1.98;;
75426;SDS011;64007;50.632;13.700;2023-03-05T06:58:21;5.43;;;2.10;;
75426;SDS011;64007;50.632;13.700;2023-03-05T07:00:48;3.90;;;1.67;;
75426;SDS011;64007;50.632;13.700;2023-03-05T07:03:13;5.43;;;1.95;;
75426;SDS011;64007;50.632;13.700;2023-03-05T07:05:40;2.30;;;1.48;;
75426;SDS011;64007;50.632;13.700;2023-03-05T07:08:06;2.40;;;1.50;;
75426;SDS011;64007;50.632;13.700;2023-03-05T07:10:39;3.83;;;1.50;;
75426;SDS011;64007;50.632;13.700;2023-03-05T07:13:06;3.25;;;1.52;;
75426;SDS011;64007;50.632;13.700;2023-03-05T07:15:36;4.88;;;1.38;;
75426;SDS011;64007;50.632;13.700;2023-03-05T07:18:02;2.63;;;1.17;;
75426;SDS011;64007;50.632;13.700;2023-03-05T07:20:28;6.53;;;1.50;;
75426;SDS011;64007;50.632;13.700;2023-03-05T07:22:54;6.07;;;1.10;;
75426;SDS011;64007;50.632;13.700;2023-03-05T07:25:20;2.75;;;1.48;;
75426;SDS011;64007;50.632;13.700;2023-03-05T07:27:46;2.38;;;0.90;;
75426;SDS011;64007;50.632;13.700;2023-03-05T07:30:13;2.08;;;0.80;;
75426;SDS011;64007;50.632;13.700;2023-03-05T07:32:39;2.50;;;1.15;;
75426;SDS011;64007;50.632;13.700;2023-03-05T07:35:05;2.80;;;1.20;;
75426;SDS011;64007;50.632;13.700;2023-03-05T07:37:32;2.05;;;0.90;;
75426;SDS011;64007;50.632;13.700;2023-03-05T07:39:58;1.60;;;0.70;;
75426;SDS011;64007;50.632;13.700;2023-03-05T07:42:23;2.42;;;1.42;;
75426;SDS011;64007;50.632;13.700;2023-03-05T07:44:49;3.17;;;1.00;;
75426;SDS011;64007;50.632;13.700;2023-03-05T07:47:15;2.28;;;0.80;;
75426;SDS011;64007;50.632;13.700;2023-03-05T07:49:41;2.78;;;0.90;;
75426;SDS011;64007;50.632;13.700;2023-03-05T07:52:07;1.45;;;0.70;;
75426;SDS011;64007;50.632;13.700;2023-03-05T07:54:34;2.35;;;1.02;;
75426;SDS011;64007;50.632;13.700;2023-03-05T07:57:06;2.13;;;0.90;;
75426;SDS011;64007;50.632;13.700;2023-03-05T07:59:33;3.47;;;1.10;;
75426;SDS011;64007;50.632;13.700;2023-03-05T08:01:59;1.13;;;0.73;;
75426;SDS011;64007;50.632;13.700;2023-03-05T08:04:25;3.47;;;0.80;;
75426;SDS011;64007;50.632;13.700;2023-03-05T08:06:51;2.60;;;1.40;;
75426;SDS011;64007;50.632;13.700;2023-03-05T08:09:17;1.65;;;1.00;;
75426;SDS011;64007;50.632;13.700;2023-03-05T08:11:44;3.38;;;1.30;;
75426;SDS011;64007;50.632;13.700;2023-03-05T08:14:10;3.45;;;1.17;;
75426;SDS011;64007;50.632;13.700;2023-03-05T08:16:37;1.88;;;0.93;;
75426;SDS011;64007;50.632;13.700;2023-03-05T08:19:04;4.70;;;1.67;;
75426;SDS011;64007;50.632;13.700;2023-03-05T08:21:31;2.80;;;1.20;;
75426;SDS011;64007;50.632;13.700;2023-03-05T08:23:59;5.78;;;1.60;;
75426;SDS011;64007;50.632;13.700;2023-03-05T08:26:29;3.58;;;1.15;;
75426;SDS011;64007;50.632;13.700;2023-03-05T08:28:57;2.83;;;0.98;;
75426;SDS011;64007;50.632;13.700;2023-03-05T08:31:23;2.00;;;0.93;;
75426;SDS011;64007;50.632;13.700;2023-03-05T08:33:51;3.47;;;1.60;;
75426;SDS011;64007;50.632;13.700;2023-03-05T08:36:19;5.68;;;1.13;;
75426;SDS011;64007;50.632;13.700;2023-03-05T08:38:46;2.17;;;0.90;;
75426;SDS011;64007;50.632;13.700;2023-03-05T08:41:13;3.40;;;1.38;;
75426;SDS011;64007;50.632;13.700;2023-03-05T08:43:40;2.63;;;1.10;;
75426;SDS011;64007;50.632;13.700;2023-03-05T08:46:06;2.08;;;0.90;;
75426;SDS011;64007;50.632;13.700;2023-03-05T08:48:33;1.02;;;0.60;;
75426;SDS011;64007;50.632;13.700;2023-03-05T08:51:09;3.22;;;1.00;;
75426;SDS011;64007;50.632;13.700;2023-03-05T08:53:37;2.00;;;1.00;;
75426;SDS011;64007;50.632;13.700;2023-03-05T08:56:03;2.25;;;1.00;;
75426;SDS011;64007;50.632;13.700;2023-03-05T08:58:29;1.92;;;0.98;;
75426;SDS011;64007;50.632;13.700;2023-03-05T09:00:56;1.98;;;1.27;;
75426;SDS011;64007;50.632;13.700;2023-03-05T09:03:22;2.47;;;0.88;;
75426;SDS011;64007;50.632;13.700;2023-03-05T09:05:48;2.83;;;0.70;;
75426;SDS011;64007;50.632;13.700;2023-03-05T09:08:16;2.30;;;1.30;;
75426;SDS011;64007;50.632;13.700;2023-03-05T09:10:41;3.42;;;1.63;;
75426;SDS011;64007;50.632;13.700;2023-03-05T09:13:08;1.13;;;0.60;;
75426;SDS011;64007;50.632;13.700;2023-03-05T09:15:34;3.30;;;0.80;;
75426;SDS011;64007;50.632;13.700;2023-03-05T09:18:00;1.05;;;0.70;;
75426;SDS011;64007;50.632;13.700;2023-03-05T09:20:26;4.03;;;0.90;;
75426;SDS011;64007;50.632;13.700;2023-03-05T09:22:52;1.08;;;0.77;;
75426;SDS011;64007;50.632;13.700;2023-03-05T09:25:18;2.17;;;0.95;;
75426;SDS011;64007;50.632;13.700;2023-03-05T09:27:44;2.53;;;1.30;;
75426;SDS011;64007;50.632;13.700;2023-03-05T09:30:10;2.28;;;1.13;;
75426;SDS011;64007;50.632;13.700;2023-03-05T09:32:37;1.50;;;0.80;;
75426;SDS011;64007;50.632;13.700;2023-03-05T09:35:03;3.17;;;1.23;;
75426;SDS011;64007;50.632;13.700;2023-03-05T09:37:29;1.70;;;0.70;;
75426;SDS011;64007;50.632;13.700;2023-03-05T09:39:55;1.20;;;0.50;;
75426;SDS011;64007;50.632;13.700;2023-03-05T09:50:32;2.13;;;0.80;;
75426;SDS011;64007;50.632;13.700;2023-03-05T09:53:04;2.33;;;0.50;;
75426;SDS011;64007;50.632;13.700;2023-03-05T09:55:49;1.63;;;0.70;;
75426;SDS011;64007;50.632;13.700;2023-03-05T09:58:37;2.28;;;1.00;;
75426;SDS011;64007;50.632;13.700;2023-03-05T10:01:09;4.55;;;1.00;;
75426;SDS011;64007;50.632;13.700;2023-03-05T10:03:47;2.65;;;0.85;;
75426;SDS011;64007;50.632;13.700;2023-03-05T10:06:22;3.38;;;1.23;;
75426;SDS011;64007;50.632;13.700;2023-03-05T10:09:06;3.80;;;1.17;;
75426;SDS011;64007;50.632;13.700;2023-03-05T10:11:37;3.42;;;1.42;;
75426;SDS011;64007;50.632;13.700;2023-03-05T10:14:14;6.10;;;1.30;;
75426;SDS011;64007;50.632;13.700;2023-03-05T10:22:24;2.15;;;1.08;;
75426;SDS011;64007;50.632;13.700;2023-03-05T10:28:26;5.30;;;1.95;;
75426;SDS011;64007;50.632;13.700;2023-03-05T10:38:53;3.08;;;0.90;;
75426;SDS011;64007;50.632;13.700;2023-03-05T10:44:38;3.45;;;0.90;;
75426;SDS011;64007;50.632;13.700;2023-03-05T10:47:19;2.67;;;1.30;;
75426;SDS011;64007;50.632;13.700;2023-03-05T10:49:50;1.05;;;0.77;;
75426;SDS011;64007;50.632;13.700;2023-03-05T10:55:04;4.45;;;1.00;;
75426;SDS011;64007;50.632;13.700;2023-03-05T10:57:39;3.90;;;1.10;;
75426;SDS011;64007;50.632;13.700;2023-03-05T11:02:30;2.78;;;1.25;;
75426;SDS011;64007;50.632;13.700;2023-03-05T11:04:55;1.60;;;1.02;;
75426;SDS011;64007;50.632;13.700;2023-03-05T11:12:25;3.75;;;1.35;;
75426;SDS011;64007;50.632;13.700;2023-03-05T11:28:39;1.25;;;0.85;;
75426;SDS011;64007;50.632;13.700;2023-03-05T11:31:20;2.78;;;1.05;;
75426;SDS011;64007;50.632;13.700;2023-03-05T11:36:36;2.22;;;0.98;;
75426;SDS011;64007;50.632;13.700;2023-03-05T11:44:14;2.90;;;1.20;;
75426;SDS011;64007;50.632;13.700;2023-03-05T11:46:46;1.48;;;1.00;;
75426;SDS011;64007;50.632;13.700;2023-03-05T11:49:17;1.50;;;0.95;;
75426;SDS011;64007;50.632;13.700;2023-03-05T11:51:49;1.25;;;0.60;;
75426;SDS011;64007;50.632;13.700;2023-03-05T11:54:38;3.30;;;0.85;;
75426;SDS011;64007;50.632;13.700;2023-03-05T11:57:10;0.90;;;0.50;;
75426;SDS011;64007;50.632;13.700;2023-03-05T11:59:39;1.63;;;0.80;;
75426;SDS011;64007;50.632;13.700;2023-03-05T12:02:17;2.85;;;0.70;;
75426;SDS011;64007;50.632;13.700;2023-03-05T12:04:46;0.73;;;0.55;;
75426;SDS011;64007;50.632;13.700;2023-03-05T12:07:15;2.60;;;0.80;;
75426;SDS011;64007;50.632;13.700;2023-03-05T12:14:57;0.70;;;0.60;;
75426;SDS011;64007;50.632;13.700;2023-03-05T12:17:52;1.83;;;0.93;;
75426;SDS011;64007;50.632;13.700;2023-03-05T12:20:49;0.93;;;0.40;;
75426;SDS011;64007;50.632;13.700;2023-03-05T12:23:23;0.40;;;0.40;;
75426;SDS011;64007;50.632;13.700;2023-03-05T12:25:53;0.90;;;0.45;;
75426;SDS011;64007;50.632;13.700;2023-03-05T12:31:01;1.55;;;0.50;;
75426;SDS011;64007;50.632;13.700;2023-03-05T12:33:37;0.90;;;0.68;;
75426;SDS011;64007;50.632;13.700;2023-03-05T12:46:41;1.35;;;0.60;;
75426;SDS011;64007;50.632;13.700;2023-03-05T12:51:43;1.25;;;0.80;;
75426;SDS011;64007;50.632;13.700;2023-03-05T12:57:05;1.95;;;0.70;;
75426;SDS011;64007;50.632;13.700;2023-03-05T12:59:42;0.95;;;0.57;;
75426;SDS011;64007;50.632;13.700;2023-03-05T13:02:14;1.05;;;0.70;;
75426;SDS011;64007;50.632;13.700;2023-03-05T13:05:46;2.20;;;0.90;;
75426;SDS011;64007;50.632;13.700;2023-03-05T13:07:52;1.73;;;0.55;;
75426;SDS011;64007;50.632;13.700;2023-03-05T13:10:25;1.52;;;0.80;;
75426;SDS011;64007;50.632;13.700;2023-03-05T13:12:53;1.65;;;0.80;;
75426;SDS011;64007;50.632;13.700;2023-03-05T13:15:21;1.70;;;1.05;;
75426;SDS011;64007;50.632;13.700;2023-03-05T13:17:55;3.17;;;0.95;;
75426;SDS011;64007;50.632;13.700;2023-03-05T13:26:10;6.50;;;1.55;;
75426;SDS011;64007;50.632;13.700;2023-03-05T13:28:36;2.97;;;0.90;;
75426;SDS011;64007;50.632;13.700;2023-03-05T13:31:19;2.78;;;0.90;;
75426;SDS011;64007;50.632;13.700;2023-03-05T13:33:51;4.80;;;1.92;;
75426;SDS011;64007;50.632;13.700;2023-03-05T13:36:19;1.95;;;0.98;;
75426;SDS011;64007;50.632;13.700;2023-03-05T13:38:46;5.55;;;1.00;;
75426;SDS011;64007;50.632;13.700;2023-03-05T13:43:55;2.13;;;0.75;;
75426;SDS011;64007;50.632;13.700;2023-03-05T13:49:44;2.47;;;1.45;;
75426;SDS011;64007;50.632;13.700;2023-03-05T13:51:54;1.48;;;0.90;;
75426;SDS011;64007;50.632;13.700;2023-03-05T13:54:22;2.08;;;1.40;;
75426;SDS011;64007;50.632;13.700;2023-03-05T13:56:50;3.03;;;1.50;;
75426;SDS011;64007;50.632;13.700;2023-03-05T13:59:19;4.00;;;1.42;;
75426;SDS011;64007;50.632;13.700;2023-03-05T14:01:47;2.42;;;1.42;;
75426;SDS011;64007;50.632;13.700;2023-03-05T14:12:05;2.05;;;0.95;;
75426;SDS011;64007;50.632;13.700;2023-03-05T14:14:45;2.70;;;1.10;;
75426;SDS011;64007;50.632;13.700;2023-03-05T14:22:35;7.05;;;1.90;;
75426;SDS011;64007;50.632;13.700;2023-03-05T14:25:04;6.88;;;2.10;;
75426;SDS011;64007;50.632;13.700;2023-03-05T14:27:32;5.70;;;2.40;;
75426;SDS011;64007;50.632;13.700;2023-03-05T14:30:01;3.33;;;1.70;;
75426;SDS011;64007;50.632;13.700;2023-03-05T14:32:29;3.40;;;1.92;;
75426;SDS011;64007;50.632;13.700;2023-03-05T14:34:58;6.75;;;3.25;;
75426;SDS011;64007;50.632;13.700;2023-03-05T14:42:26;2.10;;;1.20;;
75426;SDS011;64007;50.632;13.700;2023-03-05T14:45:13;4.57;;;2.33;;
75426;SDS011;64007;50.632;13.700;2023-03-05T14:47:44;5.00;;;2.10;;
75426;SDS011;64007;50.632;13.700;2023-03-05T14:50:14;3.22;;;1.50;;
75426;SDS011;64007;50.632;13.700;2023-03-05T14:52:45;4.50;;;1.50;;
75426;SDS011;64007;50.632;13.700;2023-03-05T14:55:17;3.88;;;2.00;;
75426;SDS011;64007;50.632;13.700;2023-03-05T14:57:44;3.85;;;1.88;;
75426;SDS011;64007;50.632;13.700;2023-03-05T15:00:19;2.42;;;1.30;;
75426;SDS011;64007;50.632;13.700;2023-03-05T15:02:47;3.20;;;1.40;;
75426;SDS011;64007;50.632;13.700;2023-03-05T15:05:13;1.55;;;0.80;;
75426;SDS011;64007;50.632;13.700;2023-03-05T15:07:40;4.10;;;1.23;;
75426;SDS011;64007;50.632;13.700;2023-03-05T15:10:06;3.08;;;1.30;;
75426;SDS011;64007;50.632;13.700;2023-03-05T15:12:33;1.88;;;1.20;;
75426;SDS011;64007;50.632;13.700;2023-03-05T15:14:59;1.80;;;0.82;;
75426;SDS011;64007;50.632;13.700;2023-03-05T15:17:27;3.13;;;1.45;;
75426;SDS011;64007;50.632;13.700;2023-03-05T15:20:02;1.15;;;0.80;;
75426;SDS011;64007;50.632;13.700;2023-03-05T15:22:32;2.85;;;1.05;;
75426;SDS011;64007;50.632;13.700;2023-03-05T15:24:58;2.28;;;1.08;;
75426;SDS011;64007;50.632;13.700;2023-03-05T15:27:23;2.88;;;1.00;;
75426;SDS011;64007;50.632;13.700;2023-03-05T15:29:49;4.60;;;0.98;;
75426;SDS011;64007;50.632;13.700;2023-03-05T15:32:15;1.80;;;1.02;;
75426;SDS011;64007;50.632;13.700;2023-03-05T15:34:41;3.08;;;1.55;;
75426;SDS011;64007;50.632;13.700;2023-03-05T15:37:06;2.33;;;0.90;;
75426;SDS011;64007;50.632;13.700;2023-03-05T15:39:32;3.30;;;1.20;;
75426;SDS011;64007;50.632;13.700;2023-03-05T15:41:58;1.88;;;0.90;;
75426;SDS011;64007;50.632;13.700;2023-03-05T15:44:24;2.30;;;1.33;;
75426;SDS011;64007;50.632;13.700;2023-03-05T15:46:50;2.15;;;0.88;;
75426;SDS011;64007;50.632;13.700;2023-03-05T15:49:16;1.35;;;0.98;;
75426;SDS011;64007;50.632;13.700;2023-03-05T15:51:41;2.90;;;1.25;;
75426;SDS011;64007;50.632;13.700;2023-03-05T15:54:07;2.97;;;1.70;;
75426;SDS011;64007;50.632;13.700;2023-03-05T15:56:33;2.78;;;1.25;;
75426;SDS011;64007;50.632;13.700;2023-03-05T15:58:59;6.72;;;1.55;;
75426;SDS011;64007;50.632;13.700;2023-03-05T16:01:25;2.25;;;0.90;;
75426;SDS011;64007;50.632;13.700;2023-03-05T16:03:51;2.25;;;1.30;;
75426;SDS011;64007;50.632;13.700;2023-03-05T16:06:17;2.30;;;1.20;;
75426;SDS011;64007;50.632;13.700;2023-03-05T16:08:46;2.17;;;1.25;;
75426;SDS011;64007;50.632;13.700;2023-03-05T16:11:13;5.53;;;3.13;;
75426;SDS011;64007;50.632;13.700;2023-03-05T16:13:39;2.58;;;1.63;;
75426;SDS011;64007;50.632;13.700;2023-03-05T16:16:06;6.28;;;2.65;;
75426;SDS011;64007;50.632;13.700;2023-03-05T16:18:33;2.13;;;1.30;;
75426;SDS011;64007;50.632;13.700;2023-03-05T16:21:02;2.75;;;1.58;;
75426;SDS011;64007;50.632;13.700;2023-03-05T16:23:27;4.57;;;1.88;;
75426;SDS011;64007;50.632;13.700;2023-03-05T16:25:53;3.05;;;1.73;;
75426;SDS011;64007;50.632;13.700;2023-03-05T16:28:19;3.83;;;1.80;;
75426;SDS011;64007;50.632;13.700;2023-03-05T16:30:50;2.47;;;1.27;;
75426;SDS011;64007;50.632;13.700;2023-03-05T16:33:20;2.33;;;1.20;;
75426;SDS011;64007;50.632;13.700;2023-03-05T16:35:46;3.58;;;1.50;;